Danbury, IA (51019)

1:34 AM CDT on August 31, 2016 (GMT -0500)
The Danbury Review | | Change Station

Elev 1162 ft 42.24 °N, 95.72 °W | Updated 4 minutes ago

Fog
Fog
65.0 °F
Feels Like 65.0 °F
N
0.0
Wind Variable Wind from ENE
Gusts 0.0 mph

Today
High -- | Low -- °F
--% Chance of Precip.
Yesterday
High -- | Low -- °F
Precip. -- in
Pressure 30.17 in
Visibility 0.2 miles
Clouds
Dew Point 63 °F
Humidity 93%
Rainfall 0.00 in
Snow Depth Not available.
6:47 AM 7:57 PM
Waning Crescent, 1% visible
METAR KDNS 310615Z AUTO 00000KT 1/4SM FG VV002 18/18 A3017 RMK AO2
Pressure 30.17 in
Visibility 0.2 miles
Clouds
Dew Point 63 °F
Humidity 93%
Rainfall 0.00 in
Snow Depth Not available.
6:47 AM 7:57 PM
Waning Crescent, 1% visible
METAR KDNS 310615Z AUTO 00000KT 1/4SM FG VV002 18/18 A3017 RMK AO2

10-Day Weather Forecast

Almanac

Astronomy

Aug. 31, 2016 Rise Set
Actual Time
Civil Twilight
Nautical Twilight
Astronomical Twilight
Moon
Length of Visible Light
Length of Day
Tomorrow will be .
, % of the Moon is Illuminated

Today's Extremes

State Highs State Lows

Community

WunderPhotos

Upload Photos

1,936,040 photos uploaded!

WunderBlog® & News

Nearby

Air Quality

  Air Quality AQ Index Pollutant
Not available.

Snow Depth

Station Depth Elevation

Earthquake Activity

City Distance Mag. Time & Date
Minimum magnitude displayed is 2.5.

Coastal Water Temperatures

Place Temperature

Stations

Nearby Weather Stations

Station Location Temp. Windchill Dew Point Humidity Wind Precip. Elev Updated Type
                   

Watches & Warnings

There are currently no watches in effect.